createdAt,value
2018-03-20T00:02:07.740Z,6.50
2018-03-20T00:04:33.761Z,7.60
2018-03-20T00:06:59.774Z,6.25
2018-03-20T00:09:25.949Z,7.00
2018-03-20T00:11:52.094Z,7.57
2018-03-20T00:14:18.106Z,7.10
2018-03-20T00:16:44.421Z,7.35
2018-03-20T00:19:10.510Z,7.70
2018-03-20T00:21:36.554Z,7.50
2018-03-20T00:24:02.577Z,5.85
2018-03-20T00:26:28.578Z,7.10
2018-03-20T00:28:54.563Z,6.90
2018-03-20T00:31:20.567Z,8.48
2018-03-20T00:33:46.622Z,7.40
2018-03-20T00:36:12.666Z,7.28
2018-03-20T00:38:38.711Z,6.53
2018-03-20T00:41:04.769Z,7.55
2018-03-20T00:43:30.766Z,7.68
2018-03-20T00:45:56.782Z,7.00
2018-03-20T00:48:22.793Z,7.30
2018-03-20T00:50:48.829Z,7.10
2018-03-20T00:53:14.828Z,7.57
2018-03-20T00:55:40.878Z,7.22
2018-03-20T00:58:06.852Z,8.25
2018-03-20T01:00:32.835Z,7.75
2018-03-20T01:02:58.867Z,7.80
2018-03-20T01:05:24.881Z,8.50
2018-03-20T01:07:50.887Z,8.40
2018-03-20T01:10:16.905Z,8.15
2018-03-20T01:12:42.991Z,8.15
2018-03-20T01:15:09.005Z,8.50
2018-03-20T01:17:35.014Z,9.05
2018-03-20T01:20:01.182Z,9.00
2018-03-20T01:22:27.198Z,7.70
2018-03-20T01:24:53.210Z,8.15
2018-03-20T01:27:19.755Z,8.60
2018-03-20T01:29:45.845Z,8.70
2018-03-20T01:32:11.843Z,9.55
2018-03-20T01:34:37.860Z,8.82
2018-03-20T01:37:03.878Z,8.90
2018-03-20T01:39:29.976Z,9.20
2018-03-20T01:41:56.103Z,8.25
2018-03-20T01:44:22.154Z,9.27
2018-03-20T01:46:48.190Z,10.00
2018-03-20T01:49:14.237Z,8.13
2018-03-20T01:51:40.274Z,8.98
2018-03-20T01:54:06.467Z,9.23
2018-03-20T01:56:32.512Z,9.60
2018-03-20T01:58:58.548Z,8.70
2018-03-20T02:01:24.521Z,8.43
2018-03-20T02:03:50.537Z,8.48
2018-03-20T02:06:16.565Z,9.30
2018-03-20T02:08:42.590Z,8.90
2018-03-20T02:11:08.634Z,8.15
2018-03-20T02:13:34.648Z,7.28
2018-03-20T02:16:01.405Z,7.85
2018-03-20T02:18:27.428Z,9.63
2018-03-20T02:20:53.448Z,10.00
2018-03-20T02:23:19.751Z,8.98
2018-03-20T02:25:45.800Z,8.65
2018-03-20T02:28:11.895Z,6.57
2018-03-20T02:30:38.040Z,7.05
2018-03-20T02:33:04.066Z,7.25
2018-03-20T02:35:30.112Z,5.20
2018-03-20T02:37:56.212Z,5.53
2018-03-20T02:40:22.234Z,4.82
2018-03-20T02:42:48.353Z,4.90
2018-03-20T02:45:14.389Z,5.57
2018-03-20T02:47:40.434Z,4.97
2018-03-20T02:50:06.482Z,6.25
2018-03-20T02:52:32.488Z,5.68
2018-03-20T02:54:58.535Z,5.03
2018-03-20T02:57:24.546Z,5.20
2018-03-20T02:59:50.546Z,5.30
2018-03-20T03:02:16.569Z,5.18
2018-03-20T03:04:42.629Z,6.62
2018-03-20T03:07:08.647Z,5.50
2018-03-20T03:09:34.702Z,6.25
2018-03-20T03:12:00.743Z,6.10
2018-03-20T03:14:26.770Z,6.15
2018-03-20T03:16:52.838Z,6.05
2018-03-20T03:19:18.826Z,7.68
2018-03-20T03:21:44.814Z,5.57
2018-03-20T03:24:10.827Z,6.95
2018-03-20T03:26:36.838Z,5.47
2018-03-20T03:29:02.854Z,6.18
2018-03-20T03:31:28.871Z,5.72
2018-03-20T03:33:54.944Z,7.68
2018-03-20T03:36:20.952Z,4.53
2018-03-20T03:38:47.016Z,5.57
2018-03-20T03:41:13.043Z,5.37
2018-03-20T03:43:39.146Z,4.97
2018-03-20T03:46:05.267Z,5.97
2018-03-20T03:48:31.266Z,5.65
2018-03-20T03:50:57.258Z,5.03
2018-03-20T03:53:23.521Z,5.50
2018-03-20T03:55:49.538Z,5.40
2018-03-20T03:58:15.546Z,5.28
2018-03-20T04:00:41.556Z,6.03
2018-03-20T04:03:07.690Z,5.53
2018-03-20T04:05:33.779Z,5.20
2018-03-20T04:07:59.873Z,5.47
2018-03-20T04:10:25.907Z,6.10
2018-03-20T04:12:58.789Z,4.43
2018-03-20T04:15:24.902Z,6.25
2018-03-20T04:17:50.918Z,4.78
2018-03-20T04:20:16.996Z,5.57
2018-03-20T04:22:43.125Z,5.10
2018-03-20T04:25:09.159Z,5.87
2018-03-20T04:27:35.250Z,5.85
2018-03-20T04:30:01.264Z,5.53
2018-03-20T04:32:27.317Z,5.12
2018-03-20T04:34:53.388Z,6.37
2018-03-20T04:37:19.498Z,3.90
2018-03-20T04:39:45.510Z,3.42
2018-03-20T04:42:11.529Z,3.67
2018-03-20T04:44:37.642Z,3.37
2018-03-20T04:47:03.703Z,3.80
2018-03-20T04:49:29.713Z,2.95
2018-03-20T04:51:55.709Z,3.08
2018-03-20T04:54:21.771Z,2.60
2018-03-20T04:56:47.862Z,2.95
2018-03-20T04:59:13.928Z,2.83
2018-03-20T05:01:39.908Z,3.85
2018-03-20T05:04:06.073Z,2.85
2018-03-20T05:06:32.276Z,3.53
2018-03-20T05:08:58.277Z,3.50
2018-03-20T05:11:24.323Z,4.85
2018-03-20T05:13:50.439Z,2.85
2018-03-20T05:16:16.496Z,3.53
2018-03-20T05:18:43.548Z,3.97
2018-03-20T05:21:10.478Z,3.25
2018-03-20T05:23:54.205Z,4.25
2018-03-20T05:26:20.379Z,4.32
2018-03-20T05:28:46.388Z,3.30
2018-03-20T05:31:12.445Z,3.87
2018-03-20T05:33:38.591Z,4.28
2018-03-20T05:36:04.661Z,4.60
2018-03-20T05:38:30.716Z,4.20
2018-03-20T05:40:56.767Z,4.50
2018-03-20T05:43:22.802Z,4.45
2018-03-20T05:45:48.836Z,3.30
2018-03-20T05:48:27.802Z,4.25
2018-03-20T05:51:00.110Z,3.78
2018-03-20T05:53:26.235Z,4.12
2018-03-20T05:55:52.275Z,4.65
2018-03-20T05:58:18.315Z,3.90
2018-03-20T06:00:44.319Z,4.72
2018-03-20T06:03:10.423Z,3.30
2018-03-20T06:05:36.542Z,3.95
2018-03-20T06:08:02.563Z,3.60
2018-03-20T06:10:28.634Z,3.70
2018-03-20T06:12:54.669Z,4.00
2018-03-20T06:15:20.711Z,3.58
2018-03-20T06:17:46.778Z,5.15
2018-03-20T06:20:12.963Z,3.97
2018-03-20T06:22:39.586Z,3.83
2018-03-20T06:25:05.733Z,4.93
2018-03-20T06:27:31.785Z,3.87
2018-03-20T06:29:57.814Z,4.20
2018-03-20T06:32:23.930Z,4.40
2018-03-20T06:34:50.020Z,3.70
2018-03-20T06:37:16.031Z,4.47
2018-03-20T06:39:42.042Z,3.67
2018-03-20T06:42:08.079Z,4.50
2018-03-20T06:44:34.116Z,3.85
2018-03-20T06:47:00.118Z,4.43
2018-03-20T06:49:26.138Z,4.55
2018-03-20T06:51:52.218Z,5.40
2018-03-20T06:54:18.221Z,3.72
2018-03-20T06:56:44.220Z,3.87
2018-03-20T06:59:10.343Z,3.60
2018-03-20T07:01:36.401Z,3.90
2018-03-20T07:04:02.429Z,4.85
2018-03-20T07:06:28.501Z,4.65
2018-03-20T07:08:54.530Z,4.87
2018-03-20T07:11:20.566Z,4.20
2018-03-20T07:13:46.552Z,4.70
2018-03-20T07:16:12.605Z,4.53
2018-03-20T07:18:38.592Z,5.70
2018-03-20T07:21:04.614Z,4.87
2018-03-20T07:23:30.650Z,5.32
2018-03-20T07:25:56.661Z,6.18
2018-03-20T07:28:22.815Z,4.47
2018-03-20T07:30:48.782Z,5.37
2018-03-20T07:33:14.831Z,5.35
2018-03-20T07:35:40.835Z,3.60
2018-03-20T07:38:06.911Z,5.05
2018-03-20T07:40:32.915Z,4.62
2018-03-20T07:42:58.932Z,5.00
2018-03-20T07:45:24.948Z,4.62
2018-03-20T07:47:50.957Z,4.85
2018-03-20T07:50:16.989Z,5.05
2018-03-20T07:52:43.018Z,3.80
2018-03-20T07:55:09.041Z,4.62
2018-03-20T07:57:35.039Z,4.05
2018-03-20T08:00:01.100Z,4.55
2018-03-20T08:02:27.158Z,4.30
2018-03-20T08:04:53.148Z,3.78
2018-03-20T08:07:19.294Z,3.60
2018-03-20T08:09:45.301Z,3.30
2018-03-20T08:12:11.289Z,3.62
2018-03-20T08:14:37.342Z,3.40
2018-03-20T08:17:03.523Z,3.15
2018-03-20T08:19:29.549Z,2.97
2018-03-20T08:21:55.633Z,2.97
2018-03-20T08:24:21.805Z,3.53
2018-03-20T08:26:47.988Z,3.35
2018-03-20T08:29:14.104Z,3.80
2018-03-20T08:31:40.086Z,3.17
2018-03-20T08:34:06.117Z,3.70
2018-03-20T08:36:32.382Z,3.87
2018-03-20T08:38:58.417Z,3.00
2018-03-20T08:41:24.632Z,2.80
2018-03-20T08:43:50.674Z,3.10
2018-03-20T08:46:16.682Z,3.05
2018-03-20T08:48:42.715Z,3.20
2018-03-20T08:51:08.743Z,3.17
2018-03-20T08:53:34.759Z,3.17
2018-03-20T08:56:00.769Z,2.90
2018-03-20T08:58:26.836Z,3.30
2018-03-20T09:00:52.831Z,2.78
2018-03-20T09:03:18.895Z,2.40
2018-03-20T09:05:44.986Z,2.78
2018-03-20T09:08:10.986Z,2.65
2018-03-20T09:10:37.062Z,2.75
2018-03-20T09:13:03.207Z,2.35
2018-03-20T09:15:29.253Z,2.40
2018-03-20T09:17:55.301Z,2.00
2018-03-20T09:20:21.368Z,2.22
2018-03-20T09:22:47.423Z,2.35
2018-03-20T09:25:13.445Z,2.03
2018-03-20T09:27:39.584Z,2.30
2018-03-20T09:30:05.634Z,2.17
2018-03-20T09:32:31.627Z,2.00
2018-03-20T09:34:57.683Z,1.93
2018-03-20T09:37:24.107Z,2.40
2018-03-20T09:39:50.135Z,2.75
2018-03-20T09:42:16.754Z,2.73
2018-03-20T09:44:42.789Z,2.03
2018-03-20T09:47:08.819Z,2.00
2018-03-20T09:49:34.848Z,2.07
2018-03-20T09:52:00.866Z,1.50
2018-03-20T09:54:26.907Z,1.90
2018-03-20T09:56:53.000Z,2.20
2018-03-20T09:59:19.138Z,1.70
2018-03-20T10:01:45.151Z,1.30
2018-03-20T10:04:11.176Z,1.90
2018-03-20T10:06:37.228Z,1.33
2018-03-20T10:09:03.403Z,1.60
2018-03-20T10:11:29.437Z,1.50
2018-03-20T10:13:55.948Z,1.93
2018-03-20T10:16:21.965Z,1.57
2018-03-20T10:18:48.036Z,1.40
2018-03-20T10:21:14.731Z,1.43
2018-03-20T10:23:40.735Z,1.97
2018-03-20T10:26:06.812Z,1.40
2018-03-20T10:28:32.826Z,1.80
2018-03-20T10:30:58.835Z,1.40
2018-03-20T10:33:24.988Z,1.13
2018-03-20T10:35:50.985Z,1.23
2018-03-20T10:38:17.098Z,1.20
2018-03-20T10:40:43.154Z,1.33
2018-03-20T10:43:09.204Z,1.30
2018-03-20T10:45:35.209Z,1.40
2018-03-20T10:48:01.330Z,1.27
2018-03-20T10:50:27.399Z,0.90
2018-03-20T10:52:53.465Z,1.53
2018-03-20T10:55:19.490Z,1.43
2018-03-20T10:57:45.599Z,1.10
2018-03-20T11:00:11.688Z,1.40
2018-03-20T11:02:43.782Z,1.50
2018-03-20T11:05:09.809Z,1.60
2018-03-20T11:07:35.848Z,1.33
2018-03-20T11:10:02.359Z,1.20
2018-03-20T11:12:28.409Z,1.37
2018-03-20T11:14:54.410Z,1.30
2018-03-20T11:17:20.448Z,0.97
2018-03-20T11:19:46.480Z,1.60
2018-03-20T11:22:12.497Z,1.40
2018-03-20T11:24:38.517Z,1.58
2018-03-20T11:27:04.554Z,1.42
2018-03-20T11:29:30.573Z,1.17
2018-03-20T11:31:56.669Z,1.60
2018-03-20T11:34:22.780Z,1.20
2018-03-20T11:36:48.836Z,1.40
2018-03-20T11:39:14.878Z,1.60
2018-03-20T11:41:40.883Z,1.63
2018-03-20T11:44:06.968Z,1.60
2018-03-20T11:46:33.113Z,1.67
2018-03-20T11:48:59.152Z,1.53
2018-03-20T11:51:25.204Z,1.40
2018-03-20T11:53:51.289Z,1.40
2018-03-20T11:56:17.432Z,1.17
2018-03-20T11:58:43.582Z,1.47
2018-03-20T12:01:09.686Z,1.43
2018-03-20T12:03:35.781Z,1.33
2018-03-20T12:06:01.838Z,1.50
2018-03-20T12:08:40.068Z,1.47
2018-03-20T12:11:06.168Z,1.27
2018-03-20T12:13:32.180Z,1.60
2018-03-20T12:15:58.202Z,1.47
2018-03-20T12:18:24.270Z,1.50
2018-03-20T12:20:50.347Z,1.27
2018-03-20T12:23:16.395Z,1.73
2018-03-20T12:25:42.396Z,1.20
2018-03-20T12:28:08.475Z,1.63
2018-03-20T12:30:34.499Z,1.30
2018-03-20T12:33:00.552Z,1.67
2018-03-20T12:35:26.624Z,1.80
2018-03-20T12:37:52.638Z,1.30
2018-03-20T12:40:18.669Z,1.70
2018-03-20T12:42:44.830Z,1.57
2018-03-20T12:45:10.876Z,1.87
2018-03-20T12:47:37.065Z,1.60
2018-03-20T12:50:03.096Z,1.30
2018-03-20T12:52:29.211Z,1.73
2018-03-20T12:54:55.463Z,1.60
2018-03-20T12:57:22.019Z,1.60
2018-03-20T12:59:48.146Z,1.40
2018-03-20T13:02:14.171Z,1.70
2018-03-20T13:04:40.289Z,1.43
2018-03-20T13:07:06.266Z,1.70
2018-03-20T13:09:32.333Z,1.60
2018-03-20T13:11:58.377Z,1.47
2018-03-20T13:14:24.454Z,1.87
2018-03-20T13:16:50.495Z,1.70
2018-03-20T13:19:16.589Z,1.60
2018-03-20T13:21:42.610Z,1.50
2018-03-20T13:24:08.676Z,1.77
2018-03-20T13:26:34.733Z,1.60
2018-03-20T13:29:00.799Z,1.77
2018-03-20T13:31:26.802Z,1.70
2018-03-20T13:33:52.860Z,1.63
2018-03-20T13:36:18.908Z,1.47
2018-03-20T13:38:44.939Z,1.70
2018-03-20T13:41:10.982Z,1.73
2018-03-20T13:43:37.052Z,1.43
2018-03-20T13:46:03.061Z,1.70
2018-03-20T13:48:29.081Z,1.50
2018-03-20T13:50:58.677Z,1.57
2018-03-20T13:53:27.358Z,2.47
2018-03-20T13:55:53.562Z,2.17
2018-03-20T13:58:19.599Z,2.60
2018-03-20T14:00:45.636Z,2.60
2018-03-20T14:03:11.829Z,2.50
2018-03-20T14:05:37.961Z,2.63
2018-03-20T14:08:04.066Z,2.13
2018-03-20T14:10:30.088Z,2.30
2018-03-20T14:12:56.219Z,2.20
2018-03-20T14:15:22.246Z,2.50
2018-03-20T14:17:48.259Z,2.47
2018-03-20T14:20:14.311Z,2.33
2018-03-20T14:22:40.395Z,2.60
2018-03-20T14:25:06.420Z,2.27
2018-03-20T14:27:32.469Z,2.70
2018-03-20T14:29:58.536Z,2.23
2018-03-20T14:32:24.609Z,2.73
2018-03-20T14:34:50.704Z,2.67
2018-03-20T14:37:16.751Z,2.70
2018-03-20T14:39:42.841Z,2.80
2018-03-20T14:42:08.900Z,3.10
2018-03-20T14:44:34.956Z,3.10
2018-03-20T14:47:00.998Z,2.90
2018-03-20T14:49:27.182Z,3.33
2018-03-20T14:51:53.248Z,2.90
2018-03-20T14:54:19.305Z,3.07
2018-03-20T14:56:45.361Z,2.93
2018-03-20T14:59:11.581Z,3.07
2018-03-20T15:01:37.778Z,3.40
2018-03-20T15:04:03.993Z,3.57
2018-03-20T15:06:30.040Z,3.40
2018-03-20T15:08:56.159Z,3.03
2018-03-20T15:11:22.361Z,3.70
2018-03-20T15:13:48.446Z,4.00
2018-03-20T15:16:14.469Z,3.50
2018-03-20T15:18:40.542Z,3.50
2018-03-20T15:21:06.688Z,3.80
2018-03-20T15:23:32.787Z,3.37
2018-03-20T15:25:58.937Z,3.27
2018-03-20T15:28:24.984Z,3.27
2018-03-20T15:30:51.019Z,3.40
2018-03-20T15:33:17.096Z,3.07
2018-03-20T15:35:43.174Z,3.40
2018-03-20T15:38:09.802Z,3.20
2018-03-20T15:40:35.870Z,3.17
2018-03-20T15:43:01.978Z,3.20
2018-03-20T15:45:28.047Z,3.13
2018-03-20T15:47:54.103Z,3.33
2018-03-20T15:50:20.136Z,2.80
2018-03-20T15:52:46.242Z,3.37
2018-03-20T15:55:12.288Z,3.30
2018-03-20T15:57:39.223Z,2.80
2018-03-20T16:00:05.256Z,3.03
2018-03-20T16:02:31.425Z,3.00
2018-03-20T16:04:57.507Z,2.90
2018-03-20T16:07:23.499Z,3.23
2018-03-20T16:09:50.242Z,3.07
2018-03-20T16:12:16.269Z,2.97
2018-03-20T16:14:42.262Z,3.20
2018-03-20T16:17:08.396Z,2.67
2018-03-20T16:19:34.412Z,3.33
2018-03-20T16:22:00.430Z,2.60
2018-03-20T16:24:26.463Z,3.10
2018-03-20T16:26:52.575Z,3.00
2018-03-20T16:29:18.595Z,2.80
2018-03-20T16:31:44.626Z,2.42
2018-03-20T16:34:10.709Z,2.50
2018-03-20T16:36:36.790Z,2.50
2018-03-20T16:39:02.890Z,2.17
2018-03-20T16:41:28.916Z,2.47
2018-03-20T16:43:55.041Z,2.40
2018-03-20T16:46:21.103Z,2.50
2018-03-20T16:48:47.186Z,2.05
2018-03-20T16:51:13.221Z,2.35
2018-03-20T16:53:39.270Z,2.85
2018-03-20T16:56:05.339Z,2.90
2018-03-20T16:58:31.341Z,3.00
2018-03-20T17:00:57.388Z,3.08
2018-03-20T17:03:23.441Z,3.22
2018-03-20T17:05:49.466Z,2.92
2018-03-20T17:08:16.573Z,2.70
2018-03-20T17:10:42.598Z,2.75
2018-03-20T17:13:08.614Z,2.90
2018-03-20T17:15:34.646Z,2.60
2018-03-20T17:18:00.726Z,3.05
2018-03-20T17:20:27.108Z,2.90
2018-03-20T17:22:53.258Z,3.47
2018-03-20T17:25:19.393Z,2.87
2018-03-20T17:27:45.412Z,3.12
2018-03-20T17:30:11.546Z,2.83
2018-03-20T17:32:37.712Z,3.83
2018-03-20T17:35:03.762Z,3.53
2018-03-20T17:37:29.976Z,3.70
2018-03-20T17:39:56.061Z,3.70
2018-03-20T17:42:22.090Z,3.40
2018-03-20T17:44:48.177Z,4.53
2018-03-20T17:47:14.282Z,4.00
2018-03-20T17:49:40.350Z,3.80
2018-03-20T17:52:06.402Z,3.70
2018-03-20T17:54:32.561Z,4.03
2018-03-20T17:56:58.595Z,3.17
2018-03-20T17:59:24.762Z,4.25
2018-03-20T18:01:50.839Z,3.20
2018-03-20T18:04:16.896Z,3.95
2018-03-20T18:06:42.940Z,3.40
2018-03-20T18:09:08.958Z,4.43
2018-03-20T18:11:35.012Z,4.70
2018-03-20T18:14:01.071Z,4.35
2018-03-20T18:16:27.147Z,4.37
2018-03-20T18:18:53.373Z,4.70
2018-03-20T18:21:19.482Z,5.32
2018-03-20T18:23:45.604Z,5.12
2018-03-20T18:26:11.641Z,4.60
2018-03-20T18:28:38.292Z,4.60
2018-03-20T18:31:04.330Z,4.95
2018-03-20T18:33:30.382Z,5.20
2018-03-20T18:35:56.493Z,5.37
2018-03-20T18:38:22.534Z,5.35
2018-03-20T18:40:48.539Z,5.45
2018-03-20T18:43:14.580Z,4.57
2018-03-20T18:45:40.744Z,4.60
2018-03-20T18:48:06.868Z,5.93
2018-03-20T18:50:33.002Z,4.97
2018-03-20T18:52:59.181Z,5.28
2018-03-20T18:55:25.437Z,4.97
2018-03-20T18:57:51.546Z,5.28
2018-03-20T19:00:17.620Z,4.90
2018-03-20T19:02:43.676Z,4.10
2018-03-20T19:05:09.925Z,4.90
2018-03-20T19:07:36.117Z,5.53
2018-03-20T19:10:02.296Z,5.03
2018-03-20T19:12:28.359Z,4.70
2018-03-20T19:14:54.462Z,5.28
2018-03-20T19:17:20.549Z,5.85
2018-03-20T19:19:46.665Z,4.47
2018-03-20T19:22:12.669Z,6.65
2018-03-20T19:24:38.737Z,4.95
2018-03-20T19:27:04.869Z,5.72
2018-03-20T19:29:31.003Z,5.80
2018-03-20T19:31:57.164Z,4.93
2018-03-20T19:34:23.316Z,5.25
2018-03-20T19:36:49.514Z,4.60
2018-03-20T19:39:15.656Z,5.28
2018-03-20T19:41:41.762Z,5.62
2018-03-20T19:44:07.925Z,4.55
2018-03-20T19:46:34.115Z,4.07
2018-03-20T19:49:00.382Z,4.20
2018-03-20T19:51:26.490Z,5.30
2018-03-20T19:53:52.636Z,4.87
2018-03-20T19:56:18.767Z,5.10
2018-03-20T19:58:44.947Z,4.20
2018-03-20T20:01:11.009Z,3.87
2018-03-20T20:03:37.094Z,4.82
2018-03-20T20:06:03.371Z,3.87
2018-03-20T20:08:29.518Z,3.92
2018-03-20T20:10:55.770Z,4.18
2018-03-20T20:13:21.956Z,4.35
2018-03-20T20:15:48.043Z,5.10
2018-03-20T20:18:14.101Z,4.10
2018-03-20T20:20:40.296Z,4.62
2018-03-20T20:23:06.493Z,4.32
2018-03-20T20:25:32.580Z,4.82
2018-03-20T20:27:58.701Z,4.72
2018-03-20T20:30:24.798Z,4.78
2018-03-20T20:32:50.894Z,5.45
2018-03-20T20:35:17.001Z,3.30
2018-03-20T20:37:43.089Z,4.57
2018-03-20T20:40:09.270Z,4.55
2018-03-20T20:42:35.429Z,5.25
2018-03-20T20:45:01.443Z,4.32
2018-03-20T20:47:27.564Z,4.40
2018-03-20T20:49:53.660Z,4.25
2018-03-20T20:52:19.829Z,4.15
2018-03-20T20:54:45.902Z,4.50
2018-03-20T20:57:11.918Z,4.80
2018-03-20T20:59:38.010Z,3.40
2018-03-20T21:02:04.115Z,4.40
2018-03-20T21:04:30.185Z,3.77
2018-03-20T21:06:56.237Z,4.18
2018-03-20T21:09:22.409Z,4.27
2018-03-20T21:11:48.482Z,4.28
2018-03-20T21:14:14.494Z,4.18
2018-03-20T21:16:40.498Z,4.65
2018-03-20T21:19:06.600Z,4.28
2018-03-20T21:21:32.634Z,5.18
2018-03-20T21:23:58.694Z,3.97
2018-03-20T21:26:24.743Z,5.13
2018-03-20T21:28:50.794Z,4.22
2018-03-20T21:31:16.844Z,3.85
2018-03-20T21:33:42.889Z,4.65
2018-03-20T21:36:09.112Z,4.00
2018-03-20T21:38:35.126Z,5.03
2018-03-20T21:41:01.159Z,5.05
2018-03-20T21:43:27.258Z,4.78
2018-03-20T21:45:53.391Z,4.18
2018-03-20T21:48:19.485Z,4.95
2018-03-20T21:50:46.297Z,4.30
2018-03-20T21:53:12.370Z,4.25
2018-03-20T21:55:38.385Z,4.80
2018-03-20T21:58:04.413Z,4.35
2018-03-20T22:00:30.509Z,5.03
2018-03-20T22:03:03.490Z,5.00
2018-03-20T22:05:29.644Z,4.82
2018-03-20T22:07:55.864Z,4.25
2018-03-20T22:10:21.879Z,4.18
2018-03-20T22:12:48.027Z,4.37
2018-03-20T22:15:14.077Z,4.03
2018-03-20T22:17:40.177Z,3.85
2018-03-20T22:20:06.173Z,4.45
2018-03-20T22:22:32.275Z,4.50
2018-03-20T22:24:58.428Z,3.78
2018-03-20T22:27:24.503Z,4.22
2018-03-20T22:29:50.541Z,5.07
2018-03-20T22:32:16.564Z,4.72
2018-03-20T22:34:42.577Z,4.85
2018-03-20T22:37:08.619Z,4.50
2018-03-20T22:39:35.066Z,4.95
2018-03-20T22:42:01.148Z,5.20
2018-03-20T22:44:27.258Z,4.60
2018-03-20T22:46:53.360Z,3.90
2018-03-20T22:49:19.370Z,5.43
2018-03-20T22:51:46.013Z,5.47
2018-03-20T22:54:12.023Z,3.92
2018-03-20T22:56:38.106Z,3.78
2018-03-20T22:59:04.324Z,4.03
2018-03-20T23:01:30.417Z,5.12
2018-03-20T23:03:56.470Z,4.05
2018-03-20T23:06:22.520Z,4.78
2018-03-20T23:08:48.538Z,3.95
2018-03-20T23:11:14.548Z,4.18
2018-03-20T23:13:40.573Z,3.62
2018-03-20T23:16:06.581Z,4.57
2018-03-20T23:18:32.696Z,4.85
2018-03-20T23:20:58.748Z,3.92
2018-03-20T23:23:24.781Z,5.05
2018-03-20T23:25:50.830Z,4.35
2018-03-20T23:28:17.067Z,4.90
2018-03-20T23:30:43.137Z,4.75
2018-03-20T23:33:09.275Z,4.47
2018-03-20T23:35:35.760Z,4.05
2018-03-20T23:38:02.003Z,5.03
2018-03-20T23:40:28.034Z,4.10
2018-03-20T23:42:54.055Z,4.07
2018-03-20T23:45:20.548Z,4.72
2018-03-20T23:47:46.705Z,4.25
2018-03-20T23:50:12.751Z,4.15
2018-03-20T23:52:38.810Z,4.20
2018-03-20T23:55:04.848Z,4.43
2018-03-20T23:57:30.911Z,4.22
2018-03-20T23:59:56.920Z,4.57
